Time;durP1;ratioP1;P1;durP2;ratioP2;P2;SDS_P1;SDS_P2;PMS_P1;PMS_P2;Temp;Humidity;BMP_temperature;BMP_pressure;BME280_temperature;BME280_humidity;BME280_pressure;Samples;Min_cycle;Max_cycle;Signal;HPM_P1;HPM_P2
2021/10/11 00:00:42;;;;;;;;;63.25;49.00;;;;;15.23;66.96;102527.13;4957636;28;45279;-64
2021/10/11 00:03:07;;;;;;;;;66.50;50.25;;;;;15.23;66.80;102525.31;4956483;28;45561;-64
2021/10/11 00:05:33;;;;;;;;;65.50;49.50;;;;;15.23;67.14;102520.00;4953423;28;45393;-67
2021/10/11 00:07:59;;;;;;;;;66.00;49.75;;;;;15.26;67.09;102516.38;4953092;28;45291;-63
2021/10/11 00:10:24;;;;;;;;;67.00;51.50;;;;;15.23;67.10;102514.72;4952994;28;45258;-68
2021/10/11 00:12:52;;;;;;;;;62.00;49.00;;;;;15.22;67.33;102515.66;4954765;28;45393;-66
2021/10/11 00:15:20;;;;;;;;;64.75;50.00;;;;;15.22;67.66;102512.13;4954391;28;45381;-63
2021/10/11 00:17:46;;;;;;;;;72.50;57.50;;;;;15.19;67.63;102507.84;4955206;28;45345;-63
2021/10/11 00:20:14;;;;;;;;;62.50;50.25;;;;;15.18;67.47;102514.09;4956027;28;45389;-63
2021/10/11 00:22:39;;;;;;;;;63.50;48.00;;;;;15.16;67.48;102507.13;4957341;28;45361;-66
2021/10/11 00:25:06;;;;;;;;;59.50;47.25;;;;;15.15;67.68;102510.72;4955287;28;46052;-63
2021/10/11 00:27:32;;;;;;;;;64.75;50.75;;;;;15.11;67.86;102519.78;4952975;28;45283;-62
2021/10/11 00:29:58;;;;;;;;;64.25;51.75;;;;;15.10;67.96;102523.38;4957250;28;45512;-63
2021/10/11 00:32:24;;;;;;;;;67.75;51.75;;;;;15.06;68.40;102517.34;4952218;28;45389;-63
2021/10/11 00:34:49;;;;;;;;;67.50;51.00;;;;;15.06;68.30;102523.53;4951654;28;45338;-63
2021/10/11 00:37:15;;;;;;;;;59.75;49.00;;;;;15.07;68.25;102519.06;4953098;28;45350;-63
2021/10/11 00:39:40;;;;;;;;;68.25;50.00;;;;;15.07;68.27;102516.41;4952618;28;45457;-64
2021/10/11 00:42:06;;;;;;;;;64.00;49.75;;;;;15.06;68.48;102523.53;4954405;28;45257;-65
2021/10/11 00:44:31;;;;;;;;;67.25;48.75;;;;;15.06;68.45;102520.88;4955376;28;45717;-64
2021/10/11 00:46:57;;;;;;;;;66.75;53.25;;;;;15.03;68.94;102518.38;4954021;28;45386;-64
2021/10/11 00:49:22;;;;;;;;;66.25;50.50;;;;;15.03;68.86;102507.75;4953971;28;45317;-62
2021/10/11 00:51:48;;;;;;;;;67.50;51.00;;;;;15.03;68.73;102514.88;4954982;28;45357;-65
2021/10/11 00:54:14;;;;;;;;;62.25;49.50;;;;;15.01;69.21;102508.78;4954429;28;45373;-65
2021/10/11 00:56:40;;;;;;;;;67.75;50.50;;;;;14.99;68.99;102510.63;4954061;28;45239;-64
2021/10/11 00:59:06;;;;;;;;;67.50;52.25;;;;;14.98;69.01;102508.91;4952227;28;45350;-61
2021/10/11 01:01:31;;;;;;;;;68.00;51.50;;;;;14.95;69.12;102498.47;4951672;28;45523;-60
2021/10/11 01:03:58;;;;;;;;;65.75;51.00;;;;;14.92;69.14;102494.16;4951337;28;46353;-61
2021/10/11 01:06:24;;;;;;;;;63.50;51.75;;;;;14.89;69.28;102499.63;4952564;28;45514;-61
2021/10/11 01:08:50;;;;;;;;;65.50;50.75;;;;;14.86;69.30;102496.28;4953502;28;45480;-61
2021/10/11 01:11:16;;;;;;;;;68.75;51.75;;;;;14.85;69.07;102502.47;4954577;28;45701;-61
2021/10/11 01:13:41;;;;;;;;;69.00;51.50;;;;;14.83;69.02;102496.41;4950013;28;45580;-61
2021/10/11 01:16:07;;;;;;;;;65.50;52.50;;;;;14.82;69.42;102500.84;4953599;28;45523;-61
2021/10/11 01:18:32;;;;;;;;;66.25;50.00;;;;;14.75;69.17;102494.97;4946919;28;45222;-61
2021/10/11 01:20:58;;;;;;;;;64.50;50.75;;;;;14.79;69.44;102503.66;4943964;28;45437;-61
2021/10/11 01:23:25;;;;;;;;;72.00;53.50;;;;;14.77;69.81;102506.41;4943683;28;45435;-61
2021/10/11 01:25:52;;;;;;;;;67.25;52.50;;;;;14.76;70.06;102496.69;4943329;28;45330;-61
2021/10/11 01:28:18;;;;;;;;;68.75;52.75;;;;;14.79;70.06;102506.31;4943760;28;45278;-61
2021/10/11 01:30:44;;;;;;;;;69.25;51.75;;;;;14.80;70.07;102500.06;4943886;28;45659;-61
2021/10/11 01:33:10;;;;;;;;;65.75;50.25;;;;;14.82;70.66;102495.53;4943437;28;46550;-61
2021/10/11 01:35:35;;;;;;;;;72.25;51.50;;;;;14.85;70.54;102483.91;4943347;28;45254;-61
2021/10/11 01:38:01;;;;;;;;;68.00;51.75;;;;;14.87;70.40;102482.91;4944002;28;45393;-61
2021/10/11 01:40:26;;;;;;;;;64.00;51.25;;;;;14.89;70.79;102488.16;4944268;28;45445;-61
2021/10/11 01:42:52;;;;;;;;;64.25;49.75;;;;;14.90;70.60;102484.56;4957250;28;45433;-61
2021/10/11 01:45:18;;;;;;;;;63.50;51.00;;;;;14.89;70.50;102478.38;4962626;28;45340;-61
2021/10/11 01:47:44;;;;;;;;;67.75;51.25;;;;;14.91;70.62;102483.63;4962670;28;45223;-61
2021/10/11 01:50:09;;;;;;;;;66.75;51.75;;;;;14.91;70.73;102481.81;4962857;28;45219;-61
2021/10/11 01:52:36;;;;;;;;;65.50;50.25;;;;;14.90;70.85;102485.41;4962455;28;45852;-61
2021/10/11 01:55:03;;;;;;;;;67.25;49.25;;;;;14.89;70.87;102491.66;4962330;28;45377;-61
2021/10/11 01:57:29;;;;;;;;;67.00;49.50;;;;;14.90;70.86;102495.16;4944519;28;45533;-61
2021/10/11 01:59:54;;;;;;;;;59.00;45.25;;;;;14.91;70.96;102503.03;4943438;28;45343;-61
2021/10/11 02:02:19;;;;;;;;;70.75;51.75;;;;;14.95;71.31;102506.41;4943028;28;45306;-63
2021/10/11 02:04:45;;;;;;;;;70.00;51.00;;;;;14.99;71.13;102505.31;4943040;28;45438;-61
2021/10/11 02:07:10;;;;;;;;;67.75;50.50;;;;;15.03;71.09;102493.63;4943396;28;45298;-60
2021/10/11 02:09:36;;;;;;;;;59.00;45.75;;;;;15.06;71.42;102489.00;4943382;28;45309;-61
2021/10/11 02:12:01;;;;;;;;;58.50;48.00;;;;;15.10;71.23;102488.88;4942244;28;45626;-63
2021/10/11 02:14:27;;;;;;;;;66.25;50.50;;;;;15.15;71.50;102500.09;4942927;28;45367;-64
2021/10/11 02:16:52;;;;;;;;;62.75;50.75;;;;;15.16;71.28;102488.53;4942945;28;45366;-63
2021/10/11 02:19:18;;;;;;;;;57.50;43.75;;;;;15.20;71.45;102490.97;4942896;28;45420;-64
2021/10/11 02:21:43;;;;;;;;;59.25;46.50;;;;;15.23;71.43;102497.91;4942803;28;45238;-64
2021/10/11 02:24:09;;;;;;;;;58.75;45.25;;;;;15.25;71.58;102493.41;4942837;28;45303;-63
2021/10/11 02:26:34;;;;;;;;;58.00;43.75;;;;;15.29;71.37;102489.66;4942651;28;45421;-64
2021/10/11 02:29:00;;;;;;;;;58.00;46.75;;;;;15.31;71.50;102491.28;4942997;28;45441;-64
2021/10/11 02:31:25;;;;;;;;;57.50;42.50;;;;;15.33;71.54;102489.44;4942682;28;45204;-64
2021/10/11 02:33:51;;;;;;;;;57.75;46.00;;;;;15.35;71.30;102474.28;4957391;28;45255;-63
2021/10/11 02:36:16;;;;;;;;;54.75;44.00;;;;;15.35;71.44;102470.75;4942504;28;45247;-64
2021/10/11 02:38:44;;;;;;;;;57.25;43.00;;;;;15.37;71.35;102463.56;4942872;28;45172;-63
2021/10/11 02:41:09;;;;;;;;;54.50;40.00;;;;;15.38;71.37;102470.59;4942526;28;45504;-65
2021/10/11 02:43:35;;;;;;;;;59.00;45.00;;;;;15.39;71.51;102466.13;4961847;28;45624;-64
2021/10/11 02:46:00;;;;;;;;;60.00;45.00;;;;;15.39;71.30;102469.66;4961878;28;45310;-64
2021/10/11 02:48:26;;;;;;;;;56.75;43.00;;;;;15.41;71.28;102464.28;4961934;28;45477;-64
2021/10/11 02:50:51;;;;;;;;;54.00;39.75;;;;;15.43;71.41;102465.91;4960905;28;45488;-64
2021/10/11 02:53:17;;;;;;;;;54.25;42.25;;;;;15.44;71.22;102459.66;4960172;28;45409;-64
2021/10/11 02:55:42;;;;;;;;;60.75;42.75;;;;;15.45;71.26;102456.06;4955993;28;45441;-63
2021/10/11 02:58:08;;;;;;;;;57.00;42.50;;;;;15.47;71.40;102453.31;4941065;28;45484;-64
2021/10/11 03:00:34;;;;;;;;;46.50;39.25;;;;;15.49;71.33;102459.44;4940958;28;45696;-63
2021/10/11 03:02:59;;;;;;;;;49.00;37.75;;;;;15.51;71.16;102455.75;4945302;28;45304;-64
2021/10/11 03:05:25;;;;;;;;;49.25;38.50;;;;;15.53;71.43;102453.84;4945914;28;45290;-63
2021/10/11 03:07:50;;;;;;;;;48.50;38.00;;;;;15.54;71.46;102462.69;4945925;28;45232;-72
2021/10/11 03:10:16;;;;;;;;;45.25;32.50;;;;;15.53;71.27;102467.13;4945429;28;45340;-62
2021/10/11 03:12:42;;;;;;;;;45.00;35.50;;;;;15.52;71.39;102459.25;4945697;28;45223;-62
2021/10/11 03:15:08;;;;;;;;;38.50;32.25;;;;;15.52;71.23;102462.75;4945660;28;45454;-62
2021/10/11 03:17:34;;;;;;;;;35.75;31.25;;;;;15.49;71.57;102464.75;4945978;28;45242;-63
2021/10/11 03:20:00;;;;;;;;;42.50;32.75;;;;;15.49;71.51;102467.41;4945405;28;45381;-62
2021/10/11 03:22:27;;;;;;;;;41.75;33.00;;;;;15.46;71.39;102467.53;4944679;28;45274;-62
2021/10/11 03:24:52;;;;;;;;;43.00;34.25;;;;;15.46;71.48;102460.44;4945164;28;45310;-62
2021/10/11 03:27:18;;;;;;;;;35.75;27.00;;;;;15.46;71.48;102468.38;4945656;28;45618;-62
2021/10/11 03:29:43;;;;;;;;;35.00;28.00;;;;;15.45;71.57;102466.69;4945321;28;45454;-62
2021/10/11 03:32:09;;;;;;;;;26.50;25.75;;;;;15.44;71.80;102464.09;4945455;28;45258;-62
2021/10/11 03:34:34;;;;;;;;;30.00;25.75;;;;;15.45;71.80;102464.03;4945155;28;45239;-62
2021/10/11 03:37:00;;;;;;;;;25.75;23.50;;;;;15.45;71.98;102474.66;4945692;28;45409;-63
2021/10/11 03:39:34;;;;;;;;;28.25;24.00;;;;;15.44;71.77;102470.28;4945107;28;45307;-63
2021/10/11 03:42:00;;;;;;;;;26.75;24.00;;;;;15.41;71.53;102481.06;4952138;28;45464;-63
2021/10/11 03:44:29;;;;;;;;;22.75;19.50;;;;;15.41;71.96;102475.75;4963551;28;45449;-63
2021/10/11 03:46:57;;;;;;;;;27.75;25.25;;;;;15.42;71.93;102471.31;4964846;28;45559;-63
2021/10/11 03:49:23;;;;;;;;;27.50;22.25;;;;;15.40;71.76;102470.50;4964434;28;45372;-63
2021/10/11 03:51:51;;;;;;;;;27.50;21.25;;;;;15.41;71.95;102474.91;4964483;28;45353;-62
2021/10/11 03:54:19;;;;;;;;;26.75;23.00;;;;;15.42;72.06;102474.81;4964591;28;45281;-62
2021/10/11 03:56:45;;;;;;;;;22.00;19.00;;;;;15.42;71.85;102472.16;4951989;28;45603;-62
2021/10/11 03:59:12;;;;;;;;;27.75;24.00;;;;;15.42;71.57;102469.50;4945176;28;45395;-62
2021/10/11 04:01:38;;;;;;;;;32.00;23.00;;;;;15.41;71.77;102467.78;4944891;28;45401;-62
2021/10/11 04:04:06;;;;;;;;;21.50;18.50;;;;;15.42;71.79;102477.47;4951499;28;45200;-62
2021/10/11 04:06:31;;;;;;;;;22.75;18.00;;;;;15.44;71.92;102469.41;4964445;28;45520;-62
2021/10/11 04:09:00;;;;;;;;;18.25;15.25;;;;;15.45;71.91;102465.81;4964414;28;45948;-62
2021/10/11 04:11:27;;;;;;;;;19.25;15.25;;;;;15.44;71.80;102469.41;4963846;28;45323;-63
2021/10/11 04:13:52;;;;;;;;;18.25;16.00;;;;;15.41;71.47;102481.06;4962979;28;45324;-62
2021/10/11 04:16:18;;;;;;;;;24.00;17.75;;;;;15.40;71.71;102474.00;4964153;28;45384;-62
2021/10/11 04:18:44;;;;;;;;;17.75;16.50;;;;;15.41;71.61;102480.22;4964029;28;45344;-62
2021/10/11 04:21:09;;;;;;;;;20.50;18.75;;;;;15.40;71.47;102474.00;4964015;28;45238;-62
2021/10/11 04:23:36;;;;;;;;;18.75;16.25;;;;;15.38;71.48;102477.69;4964391;28;45352;-63
2021/10/11 04:26:02;;;;;;;;;22.25;18.25;;;;;15.32;71.33;102479.75;4963958;28;45504;-62
2021/10/11 04:28:27;;;;;;;;;22.25;17.50;;;;;15.29;71.54;102489.66;4963847;28;46128;-62
2021/10/11 04:30:53;;;;;;;;;20.50;16.50;;;;;15.24;71.72;102484.56;4963956;28;45276;-62
2021/10/11 04:33:21;;;;;;;;;21.50;16.00;;;;;15.22;71.65;102491.75;4963863;28;45460;-62
2021/10/11 04:35:46;;;;;;;;;20.75;17.75;;;;;15.19;71.96;102491.06;4963729;28;46504;-62
2021/10/11 04:38:12;;;;;;;;;18.75;16.50;;;;;15.17;71.64;102487.63;4963786;28;45739;-62
2021/10/11 04:40:37;;;;;;;;;17.25;14.50;;;;;15.13;71.88;102496.69;4963531;28;45330;-62
2021/10/11 04:43:03;;;;;;;;;19.75;15.50;;;;;15.10;71.87;102494.19;4948319;28;45369;-62
2021/10/11 04:45:29;;;;;;;;;16.25;13.75;;;;;15.08;72.01;102496.91;4963501;28;45411;-62
2021/10/11 04:48:00;;;;;;;;;16.00;14.25;;;;;15.06;71.90;102499.63;4963602;28;46076;-62
2021/10/11 04:50:31;;;;;;;;;15.00;14.25;;;;;15.06;71.95;102502.28;4963662;28;45381;-62
2021/10/11 04:56:18;;;;;;;;;17.50;14.25;;;;;15.02;71.64;102510.50;4954604;28;45430;-63
2021/10/11 04:58:43;;;;;;;;;31.50;22.75;;;;;14.99;72.35;102508.84;4944026;28;45247;-62
2021/10/11 05:01:09;;;;;;;;;13.00;12.25;;;;;14.94;72.13;102510.03;4944139;28;45586;-62
2021/10/11 05:03:34;;;;;;;;;15.00;12.75;;;;;14.90;72.21;102505.78;4943875;28;45239;-62
2021/10/11 05:06:00;;;;;;;;;18.00;15.00;;;;;14.91;72.11;102504.84;4942790;28;45255;-64
2021/10/11 05:08:25;;;;;;;;;12.25;11.00;;;;;14.91;71.87;102496.88;4943816;28;45190;-62
2021/10/11 05:10:51;;;;;;;;;16.25;10.75;;;;;14.93;72.23;102495.00;4943773;28;45298;-63
2021/10/11 05:13:16;;;;;;;;;19.75;14.00;;;;;14.93;71.93;102498.53;4944096;28;45446;-62
2021/10/11 05:15:42;;;;;;;;;12.50;11.75;;;;;14.92;71.94;102498.59;4943944;28;45580;-62
2021/10/11 05:18:07;;;;;;;;;23.75;15.00;;;;;14.90;71.87;102500.47;4943537;28;45350;-62
2021/10/11 05:20:34;;;;;;;;;16.25;15.25;;;;;14.87;72.01;102498.84;4943858;28;45247;-62
2021/10/11 05:23:00;;;;;;;;;18.25;9.00;;;;;14.83;71.69;102489.28;4943766;28;45397;-62
2021/10/11 05:25:27;;;;;;;;;14.00;12.50;;;;;14.84;71.94;102498.13;4943106;28;45413;-62
2021/10/11 05:27:53;;;;;;;;;12.00;10.50;;;;;14.82;71.76;102505.28;4958114;28;45358;-62
2021/10/11 05:30:19;;;;;;;;;10.75;10.75;;;;;14.78;71.77;102502.81;4943815;28;45251;-62
2021/10/11 05:32:44;;;;;;;;;15.75;13.25;;;;;14.79;71.82;102493.06;4943754;28;45379;-62
2021/10/11 05:35:11;;;;;;;;;16.75;11.00;;;;;14.79;71.71;102496.56;4943803;28;45345;-63
2021/10/11 05:37:39;;;;;;;;;15.00;13.00;;;;;14.81;71.74;102509.75;4943482;28;46089;-61
2021/10/11 05:40:09;;;;;;;;;12.75;9.25;;;;;14.80;71.76;102518.66;4943460;28;45343;-63
2021/10/11 05:42:34;;;;;;;;;14.50;12.75;;;;;14.78;71.68;102515.22;4955129;28;45321;-61
2021/10/11 05:45:00;;;;;;;;;17.75;13.50;;;;;14.78;71.76;102516.06;4962814;28;45338;-62
2021/10/11 05:47:26;;;;;;;;;17.00;15.00;;;;;14.79;71.78;102514.28;4962613;28;46149;-62
2021/10/11 05:49:51;;;;;;;;;14.25;12.00;;;;;14.80;71.96;102510.69;4962870;28;45425;-62
2021/10/11 05:52:17;;;;;;;;;14.50;12.00;;;;;14.80;71.71;102510.69;4962689;28;45151;-62
2021/10/11 05:54:42;;;;;;;;;18.25;13.25;;;;;14.80;71.92;102516.00;4963169;28;45311;-62
2021/10/11 05:57:08;;;;;;;;;17.50;12.25;;;;;14.82;72.01;102527.38;4948131;28;46267;-62
2021/10/11 05:59:34;;;;;;;;;16.00;13.75;;;;;14.83;71.71;102525.59;4943794;28;45255;-62
2021/10/11 06:01:59;;;;;;;;;12.75;12.00;;;;;14.83;71.82;102530.88;4943185;28;45226;-62
2021/10/11 06:04:25;;;;;;;;;15.00;11.50;;;;;14.82;71.82;102524.72;4943072;28;45380;-61
2021/10/11 06:06:50;;;;;;;;;19.00;12.75;;;;;14.80;71.88;102531.91;4942821;28;45333;-62
2021/10/11 06:09:18;;;;;;;;;18.75;15.50;;;;;14.77;71.55;102532.94;4958051;28;45357;-62
2021/10/11 06:11:44;;;;;;;;;15.75;15.00;;;;;14.78;71.75;102534.66;4951261;28;45674;-62
2021/10/11 06:14:09;;;;;;;;;20.75;13.00;;;;;14.78;71.71;102541.75;4960246;28;45502;-63
2021/10/11 06:16:35;;;;;;;;;13.50;12.75;;;;;14.77;71.63;102546.19;4961626;28;45734;-62
2021/10/11 06:19:00;;;;;;;;;19.00;11.75;;;;;14.77;71.48;102542.66;4960709;28;45301;-62
2021/10/11 06:21:26;;;;;;;;;13.75;12.00;;;;;14.74;71.46;102548.97;4961879;28;45283;-63
2021/10/11 06:23:52;;;;;;;;;12.50;9.25;;;;;14.68;70.93;102553.69;4961869;28;45239;-63
2021/10/11 06:26:18;;;;;;;;;11.25;7.75;;;;;14.64;70.94;102552.16;4961474;28;45414;-62
2021/10/11 06:28:43;;;;;;;;;11.50;8.50;;;;;14.63;70.92;102553.09;4960259;28;45393;-62
2021/10/11 06:31:09;;;;;;;;;11.25;8.50;;;;;14.64;70.99;102558.31;4955144;28;45562;-62
2021/10/11 06:33:34;;;;;;;;;14.00;10.25;;;;;14.66;71.12;102558.22;4954731;28;45410;-62
2021/10/11 06:36:00;;;;;;;;;19.50;12.25;;;;;14.65;71.27;102554.72;4951677;28;45452;-62
2021/10/11 06:38:25;;;;;;;;;17.00;13.75;;;;;14.65;71.10;102553.88;4953112;28;45322;-62
2021/10/11 06:40:52;;;;;;;;;12.00;9.75;;;;;14.67;70.88;102559.94;4952738;28;45328;-62
2021/10/11 06:43:19;;;;;;;;;9.50;9.50;;;;;14.69;70.65;102564.28;4955197;28;45246;-61
2021/10/11 06:45:45;;;;;;;;;14.75;8.75;;;;;14.68;70.71;102574.94;4956657;28;45584;-62
2021/10/11 06:48:10;;;;;;;;;11.00;8.00;;;;;14.68;70.68;102569.63;4955137;28;45295;-62
2021/10/11 06:50:36;;;;;;;;;8.75;7.00;;;;;14.70;70.61;102562.47;4953434;28;45280;-63
2021/10/11 06:53:01;;;;;;;;;17.25;10.25;;;;;14.72;70.55;102568.56;4952145;28;45413;-63
2021/10/11 06:55:27;;;;;;;;;13.50;10.25;;;;;14.73;70.38;102567.63;4954049;28;45305;-63
2021/10/11 06:57:52;;;;;;;;;20.25;9.75;;;;;14.75;70.34;102565.75;4952461;28;45281;-64
2021/10/11 07:00:18;;;;;;;;;11.25;8.00;;;;;14.77;70.09;102567.41;4950516;28;45236;-63
2021/10/11 07:02:44;;;;;;;;;12.00;6.00;;;;;14.79;69.83;102564.69;4952253;28;45500;-62
2021/10/11 07:05:12;;;;;;;;;10.50;7.75;;;;;14.77;69.20;102564.75;4949289;28;45501;-61
2021/10/11 07:07:40;;;;;;;;;12.00;8.50;;;;;14.77;69.72;102566.53;4948775;28;45679;-64
2021/10/11 07:10:06;;;;;;;;;10.50;6.00;;;;;14.72;69.47;102564.09;4952253;28;45489;-63
2021/10/11 07:12:32;;;;;;;;;7.50;6.25;;;;;14.74;69.66;102570.19;4947343;28;45761;-63
2021/10/11 07:14:57;;;;;;;;;10.75;7.00;;;;;14.78;69.34;102562.97;4952478;28;45533;-63
2021/10/11 07:17:23;;;;;;;;;11.00;7.75;;;;;14.83;69.34;102571.53;4955182;28;45396;-62
2021/10/11 07:19:48;;;;;;;;;8.50;5.75;;;;;14.84;68.70;102577.72;4951484;28;45419;-65
2021/10/11 07:22:15;;;;;;;;;9.00;6.75;;;;;14.84;68.64;102583.00;4950701;28;45505;-62
2021/10/11 07:24:41;;;;;;;;;12.00;6.75;;;;;14.86;69.16;102589.13;4951010;28;46083;-61
2021/10/11 07:27:08;;;;;;;;;6.50;5.00;;;;;14.84;68.75;102591.84;4951543;28;45360;-65
2021/10/11 07:29:37;;;;;;;;;10.50;6.50;;;;;14.86;68.43;102589.13;4951782;28;45306;-63
2021/10/11 07:32:05;;;;;;;;;7.75;5.50;;;;;14.86;68.19;102597.94;4949923;28;45426;-64
2021/10/11 07:34:34;;;;;;;;;8.50;3.00;;;;;14.88;68.22;102593.44;4950774;28;45722;-63
2021/10/11 07:37:01;;;;;;;;;6.50;4.00;;;;;14.90;68.21;102598.66;4951368;28;45308;-65
2021/10/11 07:39:27;;;;;;;;;5.00;3.50;;;;;14.89;67.90;102608.41;4952265;28;45437;-62
2021/10/11 07:41:53;;;;;;;;;8.00;5.00;;;;;14.96;68.23;102607.19;4950198;28;45675;-63
2021/10/11 07:44:19;;;;;;;;;11.00;5.25;;;;;15.02;67.55;102614.88;4952271;28;46094;-64
2021/10/11 07:46:45;;;;;;;;;5.50;5.00;;;;;15.05;67.60;102611.19;4951710;28;45362;-63
2021/10/11 07:49:13;;;;;;;;;6.75;5.25;;;;;15.07;67.42;102611.97;4954638;28;45461;-63
2021/10/11 07:51:38;;;;;;;;;5.75;4.50;;;;;15.10;67.37;102614.50;4952010;28;45479;-63
2021/10/11 07:54:04;;;;;;;;;4.50;2.25;;;;;15.09;67.09;102604.81;4952654;28;45421;-62
2021/10/11 07:56:29;;;;;;;;;7.50;4.00;;;;;15.14;67.00;102615.19;4956329;28;45361;-64
2021/10/11 07:58:55;;;;;;;;;6.25;4.00;;;;;15.16;67.13;102613.31;4954493;28;45311;-64
2021/10/11 08:01:21;;;;;;;;;4.00;4.00;;;;;15.17;66.92;102628.34;4954284;28;45346;-60
2021/10/11 08:03:46;;;;;;;;;3.75;3.75;;;;;15.20;66.45;102629.03;4953251;28;46519;-66
2021/10/11 08:06:12;;;;;;;;;9.00;3.25;;;;;15.25;66.46;102629.69;4953218;28;45219;-63
2021/10/11 08:08:38;;;;;;;;;5.50;4.75;;;;;15.31;66.48;102637.31;4954815;28;45656;-61
2021/10/11 08:11:03;;;;;;;;;5.00;4.00;;;;;15.34;65.72;102641.66;4953629;28;45167;-62
2021/10/11 08:13:29;;;;;;;;;4.00;4.00;;;;;15.33;65.76;102638.13;4951679;28;46181;-62
2021/10/11 08:15:56;;;;;;;;;10.50;7.00;;;;;15.35;66.08;102638.91;4954400;28;45266;-61
2021/10/11 08:18:23;;;;;;;;;11.25;4.75;;;;;15.38;65.54;102624.59;4960106;28;45335;-64
2021/10/11 08:20:49;;;;;;;;;6.00;6.00;;;;;15.43;65.80;102627.06;4951343;28;45464;-61
2021/10/11 08:23:15;;;;;;;;;10.00;3.25;;;;;15.51;65.38;102630.19;4956258;28;46007;-63
2021/10/11 08:25:41;;;;;;;;;7.00;5.00;;;;;15.56;65.48;102630.78;4958395;28;45334;-61
2021/10/11 08:28:06;;;;;;;;;13.75;7.00;;;;;15.61;65.24;102639.44;4962802;28;45280;-62
2021/10/11 08:30:32;;;;;;;;;4.25;3.25;;;;;15.64;64.91;102636.66;4958777;28;45494;-63
2021/10/11 08:32:59;;;;;;;;;6.00;4.25;;;;;15.69;65.14;102629.28;4954896;28;45617;-60
2021/10/11 08:35:24;;;;;;;;;4.00;4.00;;;;;15.75;64.62;102623.66;4955681;28;45414;-61
2021/10/11 08:37:53;;;;;;;;;5.50;3.00;;;;;15.81;64.35;102628.66;4959311;28;45333;-63
2021/10/11 08:40:21;;;;;;;;;2.50;2.50;;;;;15.82;64.23;102630.38;4954548;28;45312;-62
2021/10/11 08:42:48;;;;;;;;;3.75;3.75;;;;;15.84;64.26;102627.66;4956755;28;45357;-63
2021/10/11 08:45:14;;;;;;;;;4.25;3.25;;;;;15.83;63.97;102631.25;4952401;28;45273;-62
2021/10/11 08:47:40;;;;;;;;;6.00;3.00;;;;;15.88;63.83;102639.84;4958030;28;45363;-64
2021/10/11 08:50:10;;;;;;;;;5.50;3.00;;;;;15.86;63.61;102639.06;4954677;28;45310;-61
2021/10/11 08:52:37;;;;;;;;;4.00;3.00;;;;;15.88;63.81;102640.72;4962432;28;46384;-64
2021/10/11 08:55:03;;;;;;;;;4.25;3.00;;;;;15.91;63.50;102640.53;4962542;28;45385;-62
2021/10/11 08:57:32;;;;;;;;;5.00;2.00;;;;;15.98;63.40;102642.91;4962806;28;45476;-61
2021/10/11 09:00:13;;;;;;;;;2.25;2.25;;;;;16.04;63.23;102640.78;4962179;28;45535;-61
2021/10/11 09:03:06;;;;;;;;;4.25;1.50;;;;;16.13;62.94;102658.06;4958100;28;46050;-62
2021/10/11 09:05:36;;;;;;;;;5.00;3.00;;;;;16.16;63.12;102647.25;4951289;28;45224;-60
2021/10/11 09:08:10;;;;;;;;;5.25;4.00;;;;;16.23;62.92;102651.31;4953363;28;45475;-62
2021/10/11 09:10:52;;;;;;;;;3.50;2.25;;;;;16.26;62.38;102653.78;4952784;28;45340;-62
2021/10/11 09:13:33;;;;;;;;;4.25;2.00;;;;;16.30;62.48;102658.03;4952974;28;46019;-61
2021/10/11 09:16:40;;;;;;;;;5.75;2.75;;;;;16.35;62.21;102663.06;4954463;28;45381;-62
2021/10/11 09:19:18;;;;;;;;;1.75;1.75;;;;;16.40;62.04;102669.88;4953009;28;45513;-64
2021/10/11 09:21:45;;;;;;;;;5.50;2.25;;;;;16.41;61.81;102655.63;4961948;28;45469;-63
2021/10/11 09:24:18;;;;;;;;;3.75;3.25;;;;;16.47;61.84;102657.97;4962761;28;46085;-64
2021/10/11 09:26:54;;;;;;;;;3.00;2.00;;;;;16.51;61.52;102658.69;4962077;28;45339;-62
2021/10/11 09:29:33;;;;;;;;;3.50;1.00;;;;;16.56;61.32;102653.97;4962464;28;45482;-62
2021/10/11 09:32:02;;;;;;;;;1.00;1.00;;;;;16.58;61.12;102644.09;4962791;28;45501;-63
2021/10/11 09:34:28;;;;;;;;;3.50;3.00;;;;;16.62;61.28;102647.47;4962044;28;45617;-61
2021/10/11 09:36:58;;;;;;;;;2.75;1.75;;;;;16.68;60.83;102649.78;4962420;28;45337;-63
2021/10/11 09:39:28;;;;;;;;;4.75;3.00;;;;;16.69;60.56;102648.88;4961775;28;45358;-65
2021/10/11 09:41:55;;;;;;;;;4.50;2.75;;;;;16.68;59.83;102644.47;4955027;28;45545;-63
2021/10/11 09:44:21;;;;;;;;;4.75;3.00;;;;;16.64;59.82;102649.09;4959273;28;45409;-64
2021/10/11 09:46:48;;;;;;;;;4.00;4.00;;;;;16.62;59.92;102650.97;4962190;28;45294;-63
2021/10/11 09:49:14;;;;;;;;;6.00;2.75;;;;;16.64;60.14;102650.88;4961532;28;45485;-61
2021/10/11 09:51:41;;;;;;;;;3.75;3.00;;;;;16.66;60.43;102635.69;4962136;28;45266;-64
2021/10/11 09:54:07;;;;;;;;;15.00;7.25;;;;;16.79;60.33;102643.91;4960999;28;45345;-62
2021/10/11 09:56:34;;;;;;;;;7.00;3.50;;;;;16.81;59.86;102637.53;4961546;28;45402;-61
2021/10/11 09:59:01;;;;;;;;;3.25;2.00;;;;;16.87;59.20;102642.53;4962309;28;45232;-62
2021/10/11 10:01:28;;;;;;;;;2.00;1.75;;;;;16.87;58.10;102637.22;4959058;28;45804;-63
2021/10/11 10:03:56;;;;;;;;;3.00;1.50;;;;;16.84;57.96;102641.84;4952418;28;45557;-64
2021/10/11 10:06:25;;;;;;;;;2.00;1.00;;;;;16.84;58.33;102639.19;4950676;28;45405;-63
2021/10/11 10:08:52;;;;;;;;;3.00;2.00;;;;;16.82;58.29;102646.38;4952569;28;45412;-63
2021/10/11 10:11:19;;;;;;;;;6.00;4.75;;;;;16.77;57.89;102640.47;4952558;28;45456;-63
2021/10/11 10:13:49;;;;;;;;;5.25;2.00;;;;;16.77;57.63;102640.47;4952652;28;45255;-66
2021/10/11 10:16:16;;;;;;;;;2.25;2.00;;;;;16.77;56.97;102640.47;4951142;28;45410;-63
2021/10/11 10:18:44;;;;;;;;;2.50;2.00;;;;;16.78;56.95;102639.53;4958676;28;45821;-63
2021/10/11 10:21:11;;;;;;;;;4.00;2.75;;;;;16.81;57.22;102642.88;4952546;28;45508;-62
2021/10/11 10:23:39;;;;;;;;;2.75;1.00;;;;;16.84;57.03;102636.53;4952236;28;46018;-64
2021/10/11 10:26:07;;;;;;;;;4.00;2.00;;;;;16.85;57.57;102640.91;4952421;28;45413;-63
2021/10/11 10:28:53;;;;;;;;;2.00;2.00;;;;;16.91;57.09;102633.44;4955070;28;45386;-61
2021/10/11 10:31:31;;;;;;;;;3.00;3.00;;;;;16.92;57.11;102634.31;4949687;28;45463;-63
2021/10/11 10:33:57;;;;;;;;;2.00;2.00;;;;;16.92;56.62;102616.53;4953207;28;46012;-64
2021/10/11 10:36:28;;;;;;;;;1.00;1.00;;;;;16.93;57.03;102626.22;4953666;28;45416;-67
2021/10/11 10:38:59;;;;;;;;;2.75;1.00;;;;;16.95;55.63;102632.31;4969926;28;45389;-61
2021/10/11 10:41:25;;;;;;;;;3.00;2.00;;;;;17.05;56.11;102626.47;4952172;28;45573;-62
2021/10/11 10:43:51;;;;;;;;;4.00;3.00;;;;;17.16;55.67;102624.06;4949955;28;45295;-63
2021/10/11 10:46:16;;;;;;;;;5.75;3.00;;;;;17.27;55.59;102627.81;4950790;28;45421;-61
2021/10/11 10:48:53;;;;;;;;;3.50;2.50;;;;;17.36;54.78;102637.09;4952333;28;45350;-63
2021/10/11 10:51:20;;;;;;;;;2.75;1.75;;;;;17.37;54.52;102635.28;4951039;28;45385;-62
2021/10/11 10:53:57;;;;;;;;;1.00;1.00;;;;;17.44;54.24;102636.66;4951567;28;45334;-62
2021/10/11 10:56:24;;;;;;;;;2.75;2.00;;;;;17.49;53.84;102635.44;4951620;28;45389;-64
2021/10/11 10:59:02;;;;;;;;;3.25;2.00;;;;;17.53;53.68;102638.78;4952466;28;45357;-62
2021/10/11 11:01:28;;;;;;;;;4.25;3.00;;;;;17.62;53.97;102638.25;4950122;28;45254;-62
2021/10/11 11:03:53;;;;;;;;;6.75;2.00;;;;;17.74;53.86;102644.69;4951797;28;45545;-64
2021/10/11 11:06:32;;;;;;;;;3.50;2.25;;;;;17.83;53.58;102644.16;4953694;28;45867;-62
2021/10/11 11:08:59;;;;;;;;;3.00;3.00;;;;;17.90;53.80;102644.63;4953054;28;45367;-62
2021/10/11 11:11:28;;;;;;;;;5.75;3.00;;;;;17.91;53.11;102644.53;4951159;28;45303;-65
2021/10/11 11:13:59;;;;;;;;;1.75;1.00;;;;;17.90;52.78;102649.97;4952681;28;45813;-62
2021/10/11 11:16:29;;;;;;;;;4.75;3.00;;;;;17.85;53.29;102647.56;4952045;28;45331;-61